createdAt,value
2018-10-11T00:00:31.347Z,15.05
2018-10-11T00:02:59.472Z,15.04
2018-10-11T00:05:27.595Z,14.99
2018-10-11T00:07:55.719Z,14.96
2018-10-11T00:10:23.845Z,14.91
2018-10-11T00:12:52.029Z,14.83
2018-10-11T00:15:20.151Z,14.80
2018-10-11T00:17:48.265Z,14.74
2018-10-11T00:20:16.423Z,14.72
2018-10-11T00:22:44.539Z,14.76
2018-10-11T00:25:12.654Z,14.78
2018-10-11T00:27:40.779Z,14.83
2018-10-11T00:30:09.003Z,14.84
2018-10-11T00:32:37.286Z,14.80
2018-10-11T00:35:05.523Z,14.81
2018-10-11T00:37:33.741Z,14.83
2018-10-11T00:40:01.866Z,14.95
2018-10-11T00:42:29.982Z,14.96
2018-10-11T00:44:58.095Z,14.95
2018-10-11T00:47:26.223Z,14.92
2018-10-11T00:49:54.354Z,14.90
2018-10-11T00:52:22.621Z,14.93
2018-10-11T00:54:50.739Z,14.97
2018-10-11T00:57:18.827Z,14.99
2018-10-11T00:59:46.944Z,15.04
2018-10-11T01:02:15.067Z,15.08
2018-10-11T01:04:43.191Z,15.17
2018-10-11T01:07:11.323Z,15.22
2018-10-11T01:09:39.442Z,15.19
2018-10-11T01:12:07.745Z,15.18
2018-10-11T01:14:35.863Z,15.18
2018-10-11T01:17:04.019Z,15.16
2018-10-11T01:19:32.175Z,15.19
2018-10-11T01:22:00.262Z,15.21
2018-10-11T01:24:28.376Z,15.16
2018-10-11T01:26:56.529Z,15.13
2018-10-11T01:29:24.651Z,15.10
2018-10-11T01:31:52.775Z,15.08
2018-10-11T01:34:20.856Z,15.05
2018-10-11T01:36:48.995Z,15.01
2018-10-11T01:39:17.113Z,14.99
2018-10-11T01:41:45.227Z,14.99
2018-10-11T01:44:13.434Z,14.96
2018-10-11T01:46:41.555Z,14.92
2018-10-11T01:49:09.677Z,14.87
2018-10-11T01:51:37.795Z,14.84
2018-10-11T01:54:06.046Z,14.89
2018-10-11T01:56:34.222Z,14.85
2018-10-11T01:59:02.284Z,14.81
2018-10-11T02:01:30.407Z,14.77
2018-10-11T02:03:58.532Z,14.78
2018-10-11T02:06:26.900Z,14.75
2018-10-11T02:08:55.070Z,14.73
2018-10-11T02:11:23.189Z,14.73
2018-10-11T02:13:51.307Z,14.69
2018-10-11T02:16:19.425Z,14.70
2018-10-11T02:18:47.547Z,14.69
2018-10-11T02:21:15.650Z,14.67
2018-10-11T02:23:43.765Z,14.62
2018-10-11T02:26:11.883Z,14.57
2018-10-11T02:28:40.021Z,14.56
2018-10-11T02:31:08.375Z,14.49
2018-10-11T02:33:36.462Z,14.48
2018-10-11T02:36:04.563Z,14.43
2018-10-11T02:41:00.774Z,14.37
2018-10-11T02:43:28.880Z,14.34
2018-10-11T02:45:56.993Z,14.33
2018-10-11T02:48:25.096Z,14.33
2018-10-11T02:50:53.203Z,14.34
2018-10-11T02:53:21.323Z,14.33
2018-10-11T02:55:49.438Z,14.30
2018-10-11T02:58:29.062Z,14.28
2018-10-11T03:00:57.175Z,14.28
2018-10-11T03:03:27.324Z,14.22
2018-10-11T03:05:55.442Z,14.19
2018-10-11T03:08:25.509Z,14.15
2018-10-11T03:10:53.636Z,14.11
2018-10-11T03:13:21.756Z,14.06
2018-10-11T03:15:49.885Z,14.01
2018-10-11T03:18:18.176Z,13.98
2018-10-11T03:20:46.294Z,13.95
2018-10-11T03:23:14.970Z,13.90
2018-10-11T03:25:44.277Z,13.87
2018-10-11T03:28:13.997Z,13.83
2018-10-11T03:30:42.571Z,13.80
2018-10-11T03:33:11.352Z,13.75
2018-10-11T03:35:39.947Z,13.71
2018-10-11T03:38:08.063Z,13.67
2018-10-11T03:40:36.186Z,13.64
2018-10-11T03:43:04.299Z,13.57
2018-10-11T03:45:32.434Z,13.54
2018-10-11T03:48:00.707Z,13.52
2018-10-11T03:50:28.907Z,13.51
2018-10-11T03:52:57.980Z,13.47
2018-10-11T03:55:26.276Z,13.43
2018-10-11T03:57:54.394Z,13.38
2018-10-11T04:00:22.506Z,13.38
2018-10-11T04:02:50.638Z,13.36
2018-10-11T04:05:18.813Z,13.40
2018-10-11T04:07:46.945Z,13.41
2018-10-11T04:10:15.016Z,13.41
2018-10-11T04:12:43.103Z,13.40
2018-10-11T04:15:11.311Z,13.34
2018-10-11T04:17:39.389Z,13.36
2018-10-11T04:20:07.460Z,13.38
2018-10-11T04:22:35.536Z,13.42
2018-10-11T04:25:03.602Z,13.46
2018-10-11T04:27:31.678Z,13.53
2018-10-11T04:29:59.870Z,13.52
2018-10-11T04:32:27.924Z,13.53
2018-10-11T04:34:55.995Z,13.54
2018-10-11T04:37:24.079Z,13.51
2018-10-11T04:39:52.185Z,13.50
2018-10-11T04:42:20.283Z,13.51
2018-10-11T04:44:48.354Z,13.49
2018-10-11T04:47:16.515Z,13.48
2018-10-11T04:49:44.590Z,13.49
2018-10-11T04:52:12.670Z,13.51
2018-10-11T04:54:40.743Z,13.50
2018-10-11T04:57:08.912Z,13.42
2018-10-11T04:59:37.008Z,13.36
2018-10-11T05:02:05.063Z,13.35
2018-10-11T05:04:33.134Z,13.32
2018-10-11T05:07:01.294Z,13.27
2018-10-11T05:09:29.393Z,13.23
2018-10-11T05:11:57.475Z,13.20
2018-10-11T05:14:25.563Z,13.17
2018-10-11T05:16:53.640Z,13.16
2018-10-11T05:19:21.735Z,13.15
2018-10-11T05:21:49.822Z,13.11
2018-10-11T05:24:17.918Z,13.08
2018-10-11T05:26:46.000Z,13.07
2018-10-11T05:29:14.162Z,13.04
2018-10-11T05:31:42.252Z,12.99
2018-10-11T05:34:10.353Z,12.95
2018-10-11T05:36:38.608Z,12.93
2018-10-11T05:39:07.756Z,12.95
2018-10-11T05:41:36.088Z,12.93
2018-10-11T05:44:04.225Z,12.90
2018-10-11T05:46:33.428Z,12.89
2018-10-11T05:49:02.794Z,12.88
2018-10-11T05:51:31.567Z,12.90
2018-10-11T05:54:00.469Z,12.91
2018-10-11T05:56:30.103Z,12.92
2018-10-11T05:58:58.972Z,12.99
2018-10-11T06:01:27.068Z,13.06
2018-10-11T06:03:56.030Z,13.05
2018-10-11T06:06:24.126Z,13.05
2018-10-11T06:08:53.004Z,13.05
2018-10-11T06:11:21.067Z,13.07
2018-10-11T06:13:49.148Z,13.10
2018-10-11T06:16:17.219Z,13.13
2018-10-11T06:18:45.796Z,13.14
2018-10-11T06:21:14.216Z,13.19
2018-10-11T06:23:42.452Z,13.23
2018-10-11T06:26:10.834Z,13.22
2018-10-11T06:28:38.943Z,13.27
2018-10-11T06:31:07.035Z,13.32
2018-10-11T06:33:35.143Z,13.37
2018-10-11T06:36:03.316Z,13.42
2018-10-11T06:38:31.471Z,13.45
2018-10-11T06:40:59.583Z,13.45
2018-10-11T06:43:27.691Z,13.47
2018-10-11T06:45:55.837Z,13.47
2018-10-11T06:48:23.910Z,13.45
2018-10-11T06:50:51.989Z,13.43
2018-10-11T06:53:20.070Z,13.41
2018-10-11T06:55:48.205Z,13.40
2018-10-11T06:58:16.223Z,13.40
2018-10-11T07:00:44.560Z,13.43
2018-10-11T07:03:12.579Z,13.48
2018-10-11T07:05:40.683Z,13.51
2018-10-11T07:08:08.912Z,13.59
2018-10-11T07:10:37.007Z,13.64
2018-10-11T07:13:05.193Z,13.68
2018-10-11T07:15:33.288Z,13.75
2018-10-11T07:18:01.375Z,13.79
2018-10-11T07:20:29.470Z,13.84
2018-10-11T07:22:57.547Z,13.91
2018-10-11T07:25:25.675Z,13.99
2018-10-11T07:27:53.719Z,14.09
2018-10-11T07:30:21.814Z,14.18
2018-10-11T07:32:49.901Z,14.22
2018-10-11T07:35:18.111Z,14.29
2018-10-11T07:37:46.085Z,14.34
2018-10-11T07:40:14.188Z,14.40
2018-10-11T07:42:42.260Z,14.47
2018-10-11T07:45:10.607Z,14.53
2018-10-11T07:47:38.702Z,14.60
2018-10-11T07:50:07.218Z,14.69
2018-10-11T07:52:35.315Z,14.76
2018-10-11T07:55:03.401Z,14.81
2018-10-11T07:57:31.495Z,14.89
2018-10-11T07:59:59.579Z,14.96
2018-10-11T08:02:27.675Z,15.03
2018-10-11T08:04:55.768Z,15.11
2018-10-11T08:07:23.993Z,15.19
2018-10-11T08:09:52.121Z,15.25
2018-10-11T08:12:20.214Z,15.33
2018-10-11T08:14:48.300Z,15.39
2018-10-11T08:17:16.737Z,15.47
2018-10-11T08:19:44.545Z,15.57
2018-10-11T08:22:12.563Z,15.63
2018-10-11T08:24:40.804Z,15.73
2018-10-11T08:27:08.782Z,15.80
2018-10-11T08:29:36.866Z,15.86
2018-10-11T08:32:04.992Z,15.93
2018-10-11T08:34:33.043Z,15.99
2018-10-11T08:37:01.135Z,16.05
2018-10-11T08:39:29.212Z,16.13
2018-10-11T08:41:57.316Z,16.19
2018-10-11T08:44:25.407Z,16.26
2018-10-11T08:46:53.587Z,16.32
2018-10-11T08:49:21.665Z,16.39
2018-10-11T08:51:49.743Z,16.49
2018-10-11T08:54:23.160Z,16.65
2018-10-11T08:56:51.441Z,16.68
2018-10-11T08:59:19.618Z,16.72
2018-10-11T09:01:47.714Z,16.80
2018-10-11T09:04:15.904Z,16.89
2018-10-11T09:06:43.919Z,16.96
2018-10-11T09:09:12.020Z,17.01
2018-10-11T09:11:40.093Z,17.05
2018-10-11T09:14:08.928Z,17.12
2018-10-11T09:16:36.996Z,17.21
2018-10-11T09:19:05.095Z,17.27
2018-10-11T09:21:33.293Z,17.34
2018-10-11T09:24:01.384Z,17.43
2018-10-11T09:26:29.456Z,17.50
2018-10-11T09:28:57.559Z,17.59
2018-10-11T09:31:25.759Z,17.77
2018-10-11T09:33:53.906Z,17.75
2018-10-11T09:36:22.092Z,17.86
2018-10-11T09:38:50.736Z,17.93
2018-10-11T09:41:18.859Z,17.96
2018-10-11T09:43:46.957Z,18.08
2018-10-11T09:46:15.244Z,18.19
2018-10-11T09:48:43.583Z,18.20
2018-10-11T09:51:12.320Z,18.25
2018-10-11T09:53:40.792Z,18.37
2018-10-11T09:56:08.875Z,18.37
2018-10-11T09:58:36.985Z,18.53
2018-10-11T10:01:10.394Z,18.51
2018-10-11T10:03:38.477Z,18.54
2018-10-11T10:06:06.574Z,18.60
2018-10-11T10:08:34.655Z,18.68
2018-10-11T10:11:02.757Z,18.76
2018-10-11T10:13:30.827Z,18.86
2018-10-11T10:15:58.929Z,18.92
2018-10-11T10:18:27.004Z,19.02
2018-10-11T10:20:55.099Z,19.08
2018-10-11T10:23:23.164Z,19.13
2018-10-11T10:25:51.238Z,19.18
2018-10-11T10:28:19.308Z,19.30
2018-10-11T10:30:49.287Z,19.34
2018-10-11T10:33:17.490Z,19.37
2018-10-11T10:35:45.583Z,19.55
2018-10-11T10:38:13.655Z,19.52
2018-10-11T10:40:41.764Z,19.58
2018-10-11T10:43:10.195Z,19.66
2018-10-11T10:45:38.277Z,19.75
2018-10-11T10:48:06.351Z,19.86
2018-10-11T10:50:34.438Z,19.85
2018-10-11T10:53:02.727Z,19.91
2018-10-11T10:55:30.822Z,20.05
2018-10-11T10:57:58.907Z,20.04
2018-10-11T11:00:26.982Z,20.11
2018-10-11T11:02:55.068Z,20.24
2018-10-11T11:05:23.146Z,20.26
2018-10-11T11:07:51.280Z,20.31
2018-10-11T11:10:19.330Z,20.43
2018-10-11T11:12:47.420Z,20.47
2018-10-11T11:15:15.526Z,20.54
2018-10-11T11:17:43.618Z,20.59
2018-10-11T11:20:11.729Z,20.64
2018-10-11T11:22:39.825Z,20.78
2018-10-11T11:25:07.971Z,20.81
2018-10-11T11:27:36.015Z,20.82
2018-10-11T11:30:04.145Z,20.93
2018-10-11T11:32:32.237Z,21.09
2018-10-11T11:35:00.323Z,21.20
2018-10-11T11:37:28.431Z,21.17
2018-10-11T11:39:56.567Z,21.31
2018-10-11T11:42:24.642Z,21.43
2018-10-11T11:44:52.738Z,21.39
2018-10-11T11:47:20.828Z,21.44
2018-10-11T11:49:48.919Z,21.52
2018-10-11T11:52:17.012Z,21.53
2018-10-11T11:54:45.104Z,21.54
2018-10-11T11:57:13.188Z,21.59
2018-10-11T11:59:41.281Z,21.67
2018-10-11T12:02:09.419Z,21.70
2018-10-11T12:04:37.462Z,21.67
2018-10-11T12:07:05.572Z,21.73
2018-10-11T12:09:33.668Z,21.77
2018-10-11T12:12:01.756Z,21.84
2018-10-11T12:14:29.926Z,21.88
2018-10-11T12:16:58.008Z,21.92
2018-10-11T12:19:26.108Z,22.01
2018-10-11T12:21:54.225Z,22.07
2018-10-11T12:24:22.317Z,22.10
2018-10-11T12:26:50.402Z,22.18
2018-10-11T12:29:18.505Z,22.25
2018-10-11T12:31:46.583Z,22.23
2018-10-11T12:34:14.667Z,22.26
2018-10-11T12:36:42.768Z,22.26
2018-10-11T12:39:10.854Z,22.26
2018-10-11T12:41:38.953Z,22.31
2018-10-11T12:44:07.037Z,22.42
2018-10-11T12:46:35.371Z,22.52
2018-10-11T12:49:03.217Z,22.55
2018-10-11T12:51:31.450Z,22.57
2018-10-11T12:53:59.494Z,22.64
2018-10-11T12:56:27.664Z,22.65
2018-10-11T12:58:55.701Z,22.70
2018-10-11T13:01:24.258Z,22.72
2018-10-11T13:03:51.883Z,22.86
2018-10-11T13:06:19.986Z,22.84
2018-10-11T13:08:48.080Z,22.90
2018-10-11T13:11:16.189Z,22.92
2018-10-11T13:13:47.862Z,22.93
2018-10-11T13:16:12.371Z,22.95
2018-10-11T13:18:40.547Z,23.11
2018-10-11T13:21:08.715Z,23.07
2018-10-11T13:23:36.799Z,23.02
2018-10-11T13:26:04.901Z,23.02
2018-10-11T13:28:32.978Z,23.11
2018-10-11T13:31:01.072Z,23.08
2018-10-11T13:33:29.170Z,23.10
2018-10-11T13:35:57.244Z,23.14
2018-10-11T13:38:25.427Z,23.14
2018-10-11T13:40:56.894Z,23.13
2018-10-11T13:43:21.645Z,23.13
2018-10-11T13:45:52.471Z,23.12
2018-10-11T13:48:18.128Z,23.01
2018-10-11T13:50:46.886Z,22.92
2018-10-11T13:53:19.456Z,22.88
2018-10-11T13:55:48.706Z,22.83
2018-10-11T13:58:11.181Z,22.83
2018-10-11T14:00:39.263Z,22.73
2018-10-11T14:03:07.593Z,22.74
2018-10-11T14:05:35.687Z,22.71
2018-10-11T14:08:03.786Z,22.80
2018-10-11T14:10:31.924Z,22.75
2018-10-11T14:12:59.967Z,22.71
2018-10-11T14:15:28.046Z,22.82
2018-10-11T14:17:58.680Z,22.93
2018-10-11T14:20:24.495Z,22.97
2018-10-11T14:22:52.582Z,23.13
2018-10-11T14:25:20.708Z,23.15
2018-10-11T14:27:48.805Z,23.17
2018-10-11T14:30:16.884Z,23.25
2018-10-11T14:32:45.028Z,23.47
2018-10-11T14:35:13.321Z,23.40
2018-10-11T14:37:41.498Z,23.38
2018-10-11T14:40:09.652Z,23.41
2018-10-11T14:42:37.731Z,23.45
2018-10-11T14:45:06.302Z,23.53
2018-10-11T14:47:34.479Z,23.41
2018-10-11T14:50:02.571Z,23.32
2018-10-11T14:52:30.656Z,23.21
2018-10-11T14:54:58.813Z,23.13
2018-10-11T14:57:27.029Z,23.02
2018-10-11T14:59:55.066Z,22.92
2018-10-11T15:02:23.155Z,22.90
2018-10-11T15:04:51.242Z,22.75
2018-10-11T15:07:19.323Z,22.61
2018-10-11T15:09:47.409Z,22.50
2018-10-11T15:12:15.474Z,22.41
2018-10-11T15:14:43.623Z,22.31
2018-10-11T15:17:11.697Z,22.23
2018-10-11T15:19:39.810Z,22.14
2018-10-11T15:22:07.886Z,22.10
2018-10-11T15:24:36.171Z,22.01
2018-10-11T15:27:04.401Z,21.98
2018-10-11T15:29:32.593Z,21.92
2018-10-11T15:32:00.688Z,21.89
2018-10-11T15:34:28.767Z,21.85
2018-10-11T15:36:56.939Z,21.78
2018-10-11T15:39:25.024Z,21.75
2018-10-11T15:41:53.094Z,21.65
2018-10-11T15:44:21.171Z,21.61
2018-10-11T15:46:49.413Z,21.53
2018-10-11T15:49:17.457Z,21.47
2018-10-11T15:51:45.529Z,21.40
2018-10-11T15:54:13.607Z,21.31
2018-10-11T15:56:41.724Z,21.26
2018-10-11T15:59:09.791Z,21.20
2018-10-11T16:01:37.982Z,21.15
2018-10-11T16:04:06.050Z,21.09
2018-10-11T16:06:34.133Z,21.04
2018-10-11T16:09:02.312Z,20.99
2018-10-11T16:11:30.460Z,20.94
2018-10-11T16:13:58.539Z,20.88
2018-10-11T16:16:26.618Z,20.82
2018-10-11T16:18:54.696Z,20.75
2018-10-11T16:21:22.794Z,20.68
2018-10-11T16:23:50.876Z,20.62
2018-10-11T16:26:18.962Z,20.55
2018-10-11T16:28:47.036Z,20.49
2018-10-11T16:31:15.121Z,20.43
2018-10-11T16:33:43.243Z,20.36
2018-10-11T16:36:11.321Z,20.30
2018-10-11T16:38:39.392Z,20.24
2018-10-11T16:41:07.475Z,20.19
2018-10-11T16:43:35.543Z,20.10
2018-10-11T16:46:03.615Z,19.97
2018-10-11T16:48:31.706Z,19.88
2018-10-11T16:50:59.774Z,19.80
2018-10-11T16:53:27.855Z,19.69
2018-10-11T16:55:55.956Z,19.59
2018-10-11T16:58:24.047Z,19.51
2018-10-11T17:00:52.175Z,19.40
2018-10-11T17:03:20.567Z,19.31
2018-10-11T17:05:48.705Z,19.23
2018-10-11T17:08:16.813Z,19.16
2018-10-11T17:10:44.976Z,19.10
2018-10-11T17:13:13.074Z,19.04
2018-10-11T17:15:41.159Z,19.00
2018-10-11T17:18:09.262Z,18.96
2018-10-11T17:20:37.356Z,18.91
2018-10-11T17:23:05.668Z,18.88
2018-10-11T17:25:33.755Z,18.85
2018-10-11T17:28:01.874Z,18.80
2018-10-11T17:30:29.976Z,18.75
2018-10-11T17:32:58.060Z,18.73
2018-10-11T17:35:26.429Z,18.70
2018-10-11T17:37:54.588Z,18.70
2018-10-11T17:40:22.873Z,18.67
2018-10-11T17:42:51.023Z,18.62
2018-10-11T17:45:19.111Z,18.57
2018-10-11T17:47:47.196Z,18.56
2018-10-11T17:50:15.354Z,18.52
2018-10-11T17:52:43.416Z,18.51
2018-10-11T17:55:11.518Z,18.51
2018-10-11T17:57:39.605Z,18.52
2018-10-11T18:00:07.905Z,18.52
2018-10-11T18:02:35.990Z,18.54
2018-10-11T18:05:04.180Z,18.54
2018-10-11T18:07:32.279Z,18.58
2018-10-11T18:10:00.405Z,18.57
2018-10-11T18:12:28.445Z,18.57
2018-10-11T18:14:56.555Z,18.55
2018-10-11T18:17:24.623Z,18.55
2018-10-11T18:19:52.727Z,18.53
2018-10-11T18:22:20.771Z,18.51
2018-10-11T18:24:48.859Z,18.53
2018-10-11T18:27:17.859Z,18.52
2018-10-11T18:29:45.936Z,18.50
2018-10-11T18:32:14.008Z,18.50
2018-10-11T18:34:42.092Z,18.50
2018-10-11T18:37:10.170Z,18.49
2018-10-11T18:39:38.250Z,18.49
2018-10-11T18:42:06.320Z,18.50
2018-10-11T18:44:34.466Z,18.52
2018-10-11T18:47:02.478Z,18.52
2018-10-11T18:49:30.560Z,18.54
2018-10-11T18:51:58.656Z,18.55
2018-10-11T18:54:26.728Z,18.55
2018-10-11T18:56:54.810Z,18.55
2018-10-11T18:59:22.875Z,18.55
2018-10-11T19:01:50.959Z,18.56
2018-10-11T19:04:19.031Z,18.57
2018-10-11T19:06:47.128Z,18.57
2018-10-11T19:09:15.265Z,18.58
2018-10-11T19:11:43.344Z,18.59
2018-10-11T19:14:11.488Z,18.56
2018-10-11T19:16:39.565Z,18.55
2018-10-11T19:19:07.644Z,18.53
2018-10-11T19:21:35.743Z,18.50
2018-10-11T19:24:03.811Z,18.47
2018-10-11T19:26:31.888Z,18.42
2018-10-11T19:28:59.955Z,18.41
2018-10-11T19:31:28.042Z,18.42
2018-10-11T19:33:56.115Z,18.42
2018-10-11T19:36:24.326Z,18.41
2018-10-11T19:38:52.407Z,18.39
2018-10-11T19:41:20.493Z,18.38
2018-10-11T19:43:48.591Z,18.36
2018-10-11T19:46:16.674Z,18.34
2018-10-11T19:48:44.743Z,18.33
2018-10-11T19:51:12.842Z,18.35
2018-10-11T19:53:40.917Z,18.37
2018-10-11T19:56:09.026Z,18.38
2018-10-11T19:58:37.073Z,18.37
2018-10-11T20:01:05.198Z,18.40
2018-10-11T20:03:33.275Z,18.34
2018-10-11T20:06:01.392Z,18.32
2018-10-11T20:08:29.585Z,18.32
2018-10-11T20:10:57.674Z,18.32
2018-10-11T20:13:25.795Z,18.31
2018-10-11T20:15:53.998Z,18.33
2018-10-11T20:18:22.120Z,18.35
2018-10-11T20:20:50.190Z,18.36
2018-10-11T20:23:18.291Z,18.35
2018-10-11T20:25:46.397Z,18.35
2018-10-11T20:28:14.480Z,18.34
2018-10-11T20:30:42.510Z,18.34
2018-10-11T20:33:10.691Z,18.34
2018-10-11T20:35:38.831Z,18.33
2018-10-11T20:38:07.014Z,18.32
2018-10-11T20:40:35.081Z,18.32
2018-10-11T20:43:03.160Z,18.32
2018-10-11T20:45:31.329Z,18.31
2018-10-11T20:47:59.435Z,18.31
2018-10-11T20:50:27.590Z,18.30
2018-10-11T20:52:55.943Z,18.28
2018-10-11T20:55:24.012Z,18.26
2018-10-11T20:57:52.099Z,18.26
2018-10-11T21:00:20.198Z,18.25
2018-10-11T21:02:48.276Z,18.24
2018-10-11T21:05:16.424Z,18.26
2018-10-11T21:07:44.569Z,18.23
2018-10-11T21:10:12.684Z,18.22
2018-10-11T21:12:40.781Z,18.21
2018-10-11T21:15:08.880Z,18.18
2018-10-11T21:17:36.979Z,18.14
2018-10-11T21:20:05.253Z,18.10
2018-10-11T21:22:33.255Z,18.08
2018-10-11T21:25:01.371Z,18.07
2018-10-11T21:27:29.470Z,18.06
2018-10-11T21:29:57.560Z,18.04
2018-10-11T21:32:25.797Z,18.03
2018-10-11T21:34:53.960Z,18.01
2018-10-11T21:37:22.258Z,18.01
2018-10-11T21:39:50.351Z,17.99
2018-10-11T21:42:18.433Z,17.99
2018-10-11T21:44:46.528Z,17.99
2018-10-11T21:47:14.613Z,18.01
2018-10-11T21:49:42.772Z,18.01
2018-10-11T21:52:11.378Z,18.01
2018-10-11T21:54:39.772Z,18.02
2018-10-11T21:57:07.851Z,18.03
2018-10-11T21:59:35.985Z,18.02
2018-10-11T22:02:04.075Z,18.02
2018-10-11T22:04:32.186Z,18.01
2018-10-11T22:07:00.278Z,17.99
2018-10-11T22:09:28.366Z,17.93
2018-10-11T22:11:56.462Z,17.91
2018-10-11T22:14:24.804Z,17.90
2018-10-11T22:16:52.843Z,17.89
2018-10-11T22:19:20.931Z,17.89
2018-10-11T22:21:49.026Z,17.88
2018-10-11T22:24:17.201Z,17.87
2018-10-11T22:26:45.291Z,17.85
2018-10-11T22:29:13.370Z,17.84
2018-10-11T22:31:41.467Z,17.85
2018-10-11T22:34:09.566Z,17.83
2018-10-11T22:36:37.669Z,17.82
2018-10-11T22:39:08.206Z,17.78
2018-10-11T22:41:36.740Z,17.77
2018-10-11T22:44:04.838Z,17.74
2018-10-11T22:46:32.944Z,17.73
2018-10-11T22:49:01.037Z,17.73
2018-10-11T22:51:29.186Z,17.74
2018-10-11T22:53:57.270Z,17.74
2018-10-11T22:56:25.358Z,17.73
2018-10-11T22:58:53.943Z,17.73
2018-10-11T23:01:22.351Z,17.71
2018-10-11T23:03:50.436Z,17.69
2018-10-11T23:06:18.521Z,17.67
2018-10-11T23:08:46.621Z,17.64
2018-10-11T23:11:14.715Z,17.61
2018-10-11T23:13:42.811Z,17.58
2018-10-11T23:16:11.480Z,17.56
2018-10-11T23:18:40.483Z,17.52
2018-10-11T23:21:08.567Z,17.50
2018-10-11T23:23:36.661Z,17.53
2018-10-11T23:26:04.787Z,17.49
2018-10-11T23:28:32.876Z,17.48
2018-10-11T23:31:00.963Z,17.46
2018-10-11T23:33:29.064Z,17.45
2018-10-11T23:35:57.143Z,17.43
2018-10-11T23:38:25.235Z,17.40
2018-10-11T23:40:53.492Z,17.37
2018-10-11T23:43:21.590Z,17.36
2018-10-11T23:45:49.680Z,17.32
2018-10-11T23:48:17.768Z,17.28
2018-10-11T23:50:45.835Z,17.25
2018-10-11T23:53:13.926Z,17.24
2018-10-11T23:55:41.996Z,17.24
2018-10-11T23:58:10.073Z,17.23
